createdAt,value
2023-03-16T00:00:30.102Z,297.5
2023-03-16T00:05:30.121Z,300
2023-03-16T00:10:30.154Z,275
2023-03-16T00:15:30.127Z,315
2023-03-16T00:20:30.110Z,307.5
2023-03-16T00:25:30.115Z,292.5
2023-03-16T00:30:30.107Z,317.5
2023-03-16T00:35:30.203Z,297.5
2023-03-16T00:40:30.104Z,310
2023-03-16T00:45:30.242Z,350
2023-03-16T00:50:30.110Z,337.5
2023-03-16T00:55:30.113Z,52.5
2023-03-16T01:00:30.093Z,50
2023-03-16T01:05:30.096Z,352.5
2023-03-16T01:10:30.449Z,277.5
2023-03-16T01:15:30.107Z,332.5
2023-03-16T01:20:30.139Z,315
2023-03-16T01:25:30.115Z,297.5
2023-03-16T01:30:30.190Z,305
2023-03-16T01:35:30.132Z,287.5
2023-03-16T01:40:30.323Z,305
2023-03-16T01:45:30.108Z,310
2023-03-16T01:50:30.125Z,310
2023-03-16T01:55:30.118Z,310
2023-03-16T02:00:30.560Z,307.5
2023-03-16T02:05:30.106Z,305
2023-03-16T02:10:30.680Z,297.5
2023-03-16T02:15:30.146Z,300
2023-03-16T02:20:30.471Z,280
2023-03-16T02:25:30.101Z,302.5
2023-03-16T02:30:30.502Z,312.5
2023-03-16T02:35:30.167Z,302.5
2023-03-16T02:40:30.536Z,310
2023-03-16T02:45:30.106Z,295
2023-03-16T02:50:30.221Z,300
2023-03-16T02:55:30.117Z,297.5
2023-03-16T03:00:30.337Z,307.5
2023-03-16T03:05:30.107Z,300
2023-03-16T03:10:30.171Z,312.5
2023-03-16T03:15:30.103Z,290
2023-03-16T03:20:30.475Z,300
2023-03-16T03:25:30.113Z,312.5
2023-03-16T03:30:30.233Z,5
2023-03-16T03:35:30.171Z,302.5
2023-03-16T03:40:30.443Z,10
2023-03-16T03:45:30.152Z,352.5
2023-03-16T03:50:30.418Z,30
2023-03-16T03:55:30.122Z,22.5
2023-03-16T04:00:30.134Z,0
2023-03-16T04:05:30.100Z,315
2023-03-16T04:10:30.459Z,355
2023-03-16T04:15:30.111Z,47.5
2023-03-16T04:20:30.100Z,2.5
2023-03-16T04:25:30.108Z,32.5
2023-03-16T04:30:30.371Z,7.5
2023-03-16T04:35:30.110Z,45
2023-03-16T04:40:30.158Z,20
2023-03-16T04:45:30.105Z,5
2023-03-16T04:50:30.339Z,5
2023-03-16T04:55:30.234Z,15
2023-03-16T05:00:30.545Z,337.5
2023-03-16T05:05:30.166Z,342.5
2023-03-16T05:10:30.401Z,45
2023-03-16T05:15:30.108Z,70
2023-03-16T05:20:30.431Z,37.5
2023-03-16T05:25:30.107Z,50
2023-03-16T05:30:30.435Z,37.5
2023-03-16T05:35:30.144Z,20
2023-03-16T05:40:30.331Z,42.5
2023-03-16T05:45:30.109Z,27.5
2023-03-16T05:50:30.595Z,7.5
2023-03-16T05:55:30.109Z,20
2023-03-16T06:00:30.437Z,20
2023-03-16T06:05:30.104Z,12.5
2023-03-16T06:10:30.525Z,357.5
2023-03-16T06:15:30.103Z,5
2023-03-16T06:20:30.403Z,2.5
2023-03-16T06:25:30.112Z,17.5
2023-03-16T06:30:30.202Z,40
2023-03-16T06:35:30.120Z,12.5
2023-03-16T06:40:30.514Z,7.5
2023-03-16T06:45:30.159Z,15
2023-03-16T06:50:30.380Z,20
2023-03-16T06:55:30.111Z,10
2023-03-16T07:00:30.402Z,25
2023-03-16T07:05:30.110Z,12.5
2023-03-16T07:10:30.496Z,10
2023-03-16T07:15:30.110Z,20
2023-03-16T07:20:30.590Z,22.5
2023-03-16T07:25:30.107Z,15
2023-03-16T07:30:30.555Z,22.5
2023-03-16T07:35:30.108Z,40
2023-03-16T07:40:30.631Z,30
2023-03-16T07:45:30.358Z,45
2023-03-16T07:50:30.543Z,35
2023-03-16T07:55:30.108Z,32.5
2023-03-16T08:00:30.404Z,25
2023-03-16T08:05:30.111Z,40
2023-03-16T08:10:30.401Z,35
2023-03-16T08:15:30.109Z,32.5
2023-03-16T08:20:30.490Z,52.5
2023-03-16T08:25:30.123Z,25
2023-03-16T08:30:30.424Z,20
2023-03-16T08:35:30.143Z,15
2023-03-16T08:40:30.423Z,32.5
2023-03-16T08:45:30.110Z,42.5
2023-03-16T08:50:30.478Z,47.5
2023-03-16T08:55:30.119Z,57.5
2023-03-16T09:00:30.466Z,12.5
2023-03-16T09:05:30.117Z,52.5
2023-03-16T09:10:30.361Z,62.5
2023-03-16T09:15:30.122Z,72.5
2023-03-16T09:20:30.376Z,80
2023-03-16T09:25:30.265Z,100
2023-03-16T09:30:30.353Z,77.5
2023-03-16T09:35:30.433Z,72.5
2023-03-16T09:40:30.115Z,125
2023-03-16T09:45:30.332Z,105
2023-03-16T09:50:38.273Z,100
2023-03-16T09:55:30.465Z,135
2023-03-16T10:00:30.441Z,95
2023-03-16T10:05:30.103Z,102.5
2023-03-16T10:10:30.470Z,132.5
2023-03-16T10:15:30.120Z,112.5
2023-03-16T10:20:30.407Z,147.5
2023-03-16T10:25:30.227Z,135
2023-03-16T10:30:30.457Z,162.5
2023-03-16T10:35:30.565Z,132.5
2023-03-16T10:40:30.547Z,110
2023-03-16T10:45:30.379Z,87.5
2023-03-16T10:50:30.335Z,122.5
2023-03-16T10:55:30.555Z,100
2023-03-16T11:00:30.110Z,125
2023-03-16T11:05:30.452Z,135
2023-03-16T11:10:30.113Z,105
2023-03-16T11:15:30.438Z,110
2023-03-16T11:20:30.105Z,122.5
2023-03-16T11:25:30.314Z,122.5
2023-03-16T11:30:30.112Z,115
2023-03-16T11:35:30.578Z,120
2023-03-16T11:40:30.113Z,167.5
2023-03-16T11:45:30.508Z,165
2023-03-16T11:50:30.115Z,155
2023-03-16T11:55:30.456Z,112.5
2023-03-16T12:00:30.114Z,142.5
2023-03-16T12:05:30.509Z,112.5
2023-03-16T12:10:30.110Z,125
2023-03-16T12:15:30.690Z,117.5
2023-03-16T12:20:30.109Z,125
2023-03-16T12:25:30.472Z,137.5
2023-03-16T12:30:30.101Z,150
2023-03-16T12:35:30.362Z,125
2023-03-16T12:40:30.100Z,115
2023-03-16T12:45:30.417Z,132.5
2023-03-16T12:50:30.107Z,127.5
2023-03-16T12:55:30.359Z,145
2023-03-16T13:00:30.214Z,110
2023-03-16T13:05:30.610Z,125
2023-03-16T13:10:30.387Z,110
2023-03-16T13:15:30.122Z,115
2023-03-16T13:20:31.747Z,120
2023-03-16T13:25:30.116Z,122.5
2023-03-16T13:30:30.465Z,122.5
2023-03-16T13:35:30.211Z,150
2023-03-16T13:40:30.527Z,127.5
2023-03-16T13:45:30.119Z,112.5
2023-03-16T13:50:30.536Z,145
2023-03-16T13:55:30.111Z,125
2023-03-16T14:00:30.420Z,115
2023-03-16T14:05:30.556Z,155
2023-03-16T14:10:30.109Z,145
2023-03-16T14:15:30.448Z,120
2023-03-16T14:20:31.532Z,122.5
2023-03-16T14:25:30.292Z,112.5
2023-03-16T14:30:30.115Z,130
2023-03-16T14:35:30.499Z,135
2023-03-16T14:40:30.109Z,122.5
2023-03-16T14:45:30.610Z,140
2023-03-16T14:50:30.111Z,122.5
2023-03-16T14:55:30.333Z,122.5
2023-03-16T15:00:30.246Z,117.5
2023-03-16T15:05:30.408Z,110
2023-03-16T15:10:30.457Z,117.5
2023-03-16T15:15:30.116Z,125
2023-03-16T15:20:30.513Z,155
2023-03-16T15:25:30.111Z,107.5
2023-03-16T15:30:30.298Z,125
2023-03-16T15:35:30.280Z,120
2023-03-16T15:40:30.371Z,122.5
2023-03-16T15:45:30.115Z,127.5
2023-03-16T15:50:30.291Z,142.5
2023-03-16T15:55:30.108Z,145
2023-03-16T16:00:30.638Z,125
2023-03-16T16:05:30.106Z,130
2023-03-16T16:10:30.343Z,112.5
2023-03-16T16:15:30.531Z,120
2023-03-16T16:20:30.113Z,140
2023-03-16T16:25:30.444Z,150
2023-03-16T16:30:30.101Z,152.5
2023-03-16T16:35:30.323Z,137.5
2023-03-16T16:40:30.100Z,100
2023-03-16T16:45:30.508Z,132.5
2023-03-16T16:50:30.110Z,152.5
2023-03-16T16:55:30.440Z,140
2023-03-16T17:00:30.102Z,125
2023-03-16T17:05:30.451Z,127.5
2023-03-16T17:10:30.106Z,122.5
2023-03-16T17:15:30.340Z,122.5
2023-03-16T17:20:30.130Z,132.5
2023-03-16T17:25:30.468Z,117.5
2023-03-16T17:30:30.112Z,107.5
2023-03-16T17:35:30.323Z,112.5
2023-03-16T17:40:30.327Z,110
2023-03-16T17:45:30.412Z,112.5
2023-03-16T17:50:30.435Z,115
2023-03-16T17:55:30.114Z,115
2023-03-16T18:00:30.350Z,125
2023-03-16T18:05:30.162Z,105
2023-03-16T18:10:30.405Z,102.5
2023-03-16T18:15:30.110Z,127.5
2023-03-16T18:20:30.378Z,112.5
2023-03-16T18:25:30.119Z,130
2023-03-16T18:30:30.450Z,112.5
2023-03-16T18:35:30.611Z,127.5
2023-03-16T18:40:30.512Z,92.5
2023-03-16T18:45:30.380Z,110
2023-03-16T18:50:30.124Z,112.5
2023-03-16T18:55:30.423Z,107.5
2023-03-16T19:00:30.163Z,115
2023-03-16T19:05:30.558Z,2.5
2023-03-16T19:10:30.114Z,355
2023-03-16T19:15:30.324Z,112.5
2023-03-16T19:20:30.101Z,130
2023-03-16T19:25:30.321Z,115
2023-03-16T19:30:30.104Z,65
2023-03-16T19:35:44.878Z,305
2023-03-16T19:40:30.116Z,305
2023-03-16T19:45:30.407Z,322.5
2023-03-16T19:50:30.113Z,355
2023-03-16T19:55:30.389Z,320
2023-03-16T20:00:30.114Z,290
2023-03-16T20:05:30.388Z,285
2023-03-16T20:10:30.240Z,297.5
2023-03-16T20:15:30.443Z,300
2023-03-16T20:20:30.125Z,300
2023-03-16T20:25:30.472Z,302.5
2023-03-16T20:30:30.153Z,297.5
2023-03-16T20:35:30.296Z,300
2023-03-16T20:40:30.101Z,297.5
2023-03-16T20:45:30.463Z,300
2023-03-16T20:50:30.104Z,295
2023-03-16T20:55:30.294Z,295
2023-03-16T21:00:30.101Z,297.5
2023-03-16T21:05:30.341Z,300
2023-03-16T21:10:30.341Z,305
2023-03-16T21:15:30.458Z,287.5
2023-03-16T21:20:30.105Z,302.5
2023-03-16T21:25:30.366Z,300
2023-03-16T21:30:30.108Z,302.5
2023-03-16T21:35:30.292Z,300
2023-03-16T21:40:30.257Z,300
2023-03-16T21:45:30.453Z,305
2023-03-16T21:50:30.356Z,310
2023-03-16T21:55:30.122Z,295
2023-03-16T22:00:30.114Z,305
2023-03-16T22:05:30.425Z,307.5
2023-03-16T22:10:30.108Z,305
2023-03-16T22:15:30.417Z,305
2023-03-16T22:20:30.103Z,305
2023-03-16T22:25:30.438Z,307.5
2023-03-16T22:30:30.110Z,305
2023-03-16T22:35:30.308Z,295
2023-03-16T22:40:30.106Z,297.5
2023-03-16T22:45:30.457Z,310
2023-03-16T22:50:30.113Z,300
2023-03-16T22:55:30.419Z,300
2023-03-16T23:00:30.104Z,307.5
2023-03-16T23:05:30.417Z,305
2023-03-16T23:10:30.124Z,310
2023-03-16T23:15:30.520Z,302.5
2023-03-16T23:20:30.422Z,305
2023-03-16T23:25:30.108Z,302.5
2023-03-16T23:30:30.370Z,307.5
2023-03-16T23:35:30.109Z,300
2023-03-16T23:40:30.493Z,305
2023-03-16T23:45:30.109Z,300
2023-03-16T23:50:30.312Z,310
2023-03-16T23:55:30.116Z,315
